Time;durP1;ratioP1;P1;durP2;ratioP2;P2;SDS_P1;SDS_P2;PMS_P1;PMS_P2;Temp;Humidity;BMP_temperature;BMP_pressure;BME280_temperature;BME280_humidity;BME280_pressure;Samples;Min_cycle;Max_cycle;Signal;HPM_P1;HPM_P2
2022/06/02 00:00:24;;;;;;;3.50;2.87;;;;;;;16.14;70.87;98630.38;1777894;80;25652;-59
2022/06/02 00:03:19;;;;;;;3.15;2.80;;;;;;;16.05;71.45;98629.16;1786871;79;27428;-58
2022/06/02 00:06:00;;;;;;;3.83;3.00;;;;;;;15.97;72.63;98640.37;1783577;79;25649;-58
2022/06/02 00:08:53;;;;;;;3.35;3.05;;;;;;;15.88;72.74;98650.13;1786381;80;25548;-58
2022/06/02 00:11:41;;;;;;;3.15;2.80;;;;;;;15.81;73.18;98657.05;1786231;80;25787;-61
2022/06/02 00:14:21;;;;;;;2.80;2.60;;;;;;;15.78;74.19;98670.17;1786285;80;25669;-60
2022/06/02 00:17:02;;;;;;;5.95;2.75;;;;;;;15.72;74.73;98674.36;1786890;80;26871;-59
2022/06/02 00:19:55;;;;;;;3.85;2.95;;;;;;;15.66;76.22;98661.94;1783001;80;25198;-59
2022/06/02 00:22:52;;;;;;;4.25;3.00;;;;;;;15.62;74.50;98660.44;1785658;80;25685;-58
2022/06/02 00:25:45;;;;;;;6.58;3.02;;;;;;;15.58;75.50;98657.34;1786457;80;25753;-57
2022/06/02 00:28:32;;;;;;;4.03;2.80;;;;;;;15.48;76.72;98651.13;1786427;80;25657;-59
2022/06/02 00:31:18;;;;;;;4.33;3.35;;;;;;;15.42;76.84;98660.23;1786624;80;27376;-58
2022/06/02 00:34:04;;;;;;;3.65;2.58;;;;;;;15.29;76.79;98662.78;1785138;80;26038;-61
2022/06/02 00:36:41;;;;;;;3.42;2.90;;;;;;;15.25;77.48;98659.89;1786754;80;25414;-61
2022/06/02 00:39:10;;;;;;;4.92;3.45;;;;;;;15.25;77.48;98659.89;1786641;80;25924;-62
2022/06/02 00:41:53;;;;;;;5.40;3.50;;;;;;;15.28;77.67;98663.34;1786273;80;25557;-63
2022/06/02 00:44:43;;;;;;;7.08;2.92;;;;;;;15.27;78.22;98663.69;1785469;80;27605;-62
2022/06/02 00:47:42;;;;;;;3.58;3.25;;;;;;;15.25;78.44;98661.84;1786109;80;25703;-62
2022/06/02 00:50:14;;;;;;;6.22;3.37;;;;;;;15.24;77.66;98655.53;1786548;80;25640;-62
2022/06/02 00:53:00;;;;;;;5.25;3.20;;;;;;;15.18;78.25;98645.30;1785214;80;25525;-62
2022/06/02 00:59:23;;;;;;;3.98;3.37;;;;;;;15.28;78.07;98656.44;1809974;76;25626;-57
2022/06/02 01:01:51;;;;;;;6.03;3.35;;;;;;;15.29;78.42;98648.97;1821572;78;25689;-59
2022/06/02 01:04:19;;;;;;;5.20;3.40;;;;;;;15.27;78.36;98647.13;1821903;78;25764;-59
2022/06/02 01:07:12;;;;;;;4.60;3.52;;;;;;;15.27;78.36;98647.13;1822489;78;25821;-59
2022/06/02 01:10:24;;;;;;;4.65;3.30;;;;;;;15.29;78.22;98645.62;1761841;81;25660;-58
2022/06/02 01:13:15;;;;;;;3.60;3.27;;;;;;;15.26;78.14;98662.88;1762472;81;27580;-58
2022/06/02 01:15:47;;;;;;;;;;;;;;;15.26;78.14;98662.88;1762213;80;25542;-59
2022/06/02 01:18:31;;;;;;;5.35;3.60;;;;;;;15.21;78.96;98656.78;1763055;81;25610;-60
2022/06/02 01:21:17;;;;;;;4.65;3.72;;;;;;;15.15;78.52;98663.93;1762522;81;25710;-60
2022/06/02 01:24:14;;;;;;;5.37;3.87;;;;;;;15.12;78.75;98676.22;1762347;81;25716;-60
2022/06/02 01:27:06;;;;;;;5.12;3.65;;;;;;;15.05;79.05;98664.36;1761851;81;27408;-60
2022/06/02 01:29:46;;;;;;;5.72;4.40;;;;;;;15.02;79.44;98658.15;1762576;81;25857;-61
2022/06/02 01:32:22;;;;;;;4.05;3.65;;;;;;;14.96;80.04;98647.92;1747246;81;25711;-61
2022/06/02 01:35:21;;;;;;;4.92;3.95;;;;;;;14.91;80.25;98653.09;1762264;81;25722;-60
2022/06/02 01:38:01;;;;;;;6.92;5.37;;;;;;;14.91;80.25;98653.09;1703960;83;25484;-57
2022/06/02 01:40:48;;;;;;;5.43;4.33;;;;;;;14.89;80.77;98656.78;1618825;88;28313;-58
2022/06/02 01:43:20;;;;;;;7.45;4.70;;;;;;;14.89;80.76;98655.97;1570135;91;25689;-57
2022/06/02 01:46:12;;;;;;;6.67;4.08;;;;;;;14.84;82.04;98646.52;1580668;89;25815;-58
2022/06/02 01:49:10;;;;;;;3.87;3.05;;;;;;;14.84;82.04;98646.52;1602476;89;25899;-59
2022/06/02 01:51:57;;;;;;;5.62;4.17;;;;;;;14.71;82.43;98629.92;1602554;89;25671;-59
2022/06/02 01:54:50;;;;;;;7.28;4.25;;;;;;;14.71;82.43;98629.92;1602375;89;27458;-60
2022/06/02 01:57:48;;;;;;;4.95;3.60;;;;;;;14.75;83.34;98624.53;1602098;89;25766;-59
2022/06/02 02:00:20;;;;;;;5.45;3.87;;;;;;;14.73;83.38;98624.88;1602713;89;25560;-61
2022/06/02 02:03:13;;;;;;;6.20;4.85;;;;;;;14.67;83.13;98618.78;1602532;89;25813;-61
2022/06/02 02:05:54;;;;;;;5.85;4.50;;;;;;;14.67;83.54;98622.92;1580362;90;25711;-60
2022/06/02 02:08:48;;;;;;;;;;;;;;;14.62;83.76;98629.23;1597181;88;27626;-61
2022/06/02 02:11:49;;;;;;;6.65;4.87;;;;;;;14.60;83.48;98630.14;1622996;88;25722;-61
2022/06/02 02:14:37;;;;;;;6.62;4.83;;;;;;;14.60;83.67;98626.82;1622968;88;25698;-60
2022/06/02 02:17:25;;;;;;;6.58;5.62;;;;;;;14.61;83.60;98611.06;1632353;85;25812;-61
2022/06/02 02:20:40;;;;;;;8.38;5.80;;;;;;;14.57;83.86;98594.41;1689325;82;25721;-58
2022/06/02 02:23:48;;;;;;;11.83;6.50;;;;;;;14.61;83.56;98593.14;1726556;83;27418;-58
2022/06/02 02:26:25;;;;;;;10.00;7.03;;;;;;;14.63;83.16;98599.13;1727264;83;25628;-59
2022/06/02 02:29:06;;;;;;;11.57;7.67;;;;;;;14.68;83.01;98603.02;1727242;83;25697;-59
2022/06/02 02:31:50;;;;;;;12.00;7.40;;;;;;;14.71;83.06;98602.34;1686779;85;25688;-60
2022/06/02 02:34:38;;;;;;;14.73;9.10;;;;;;;14.70;83.59;98593.02;1686727;85;25636;-60
2022/06/02 02:37:22;;;;;;;15.48;10.23;;;;;;;14.71;83.00;98584.41;1686195;85;27396;-60
2022/06/02 02:39:56;;;;;;;13.68;9.10;;;;;;;14.75;83.04;98578.45;1686679;85;25710;-58
2022/06/02 02:42:39;;;;;;;17.10;11.08;;;;;;;14.75;82.91;98587.30;1716971;81;25720;-61
2022/06/02 02:45:33;;;;;;;17.10;9.58;;;;;;;14.77;82.86;98584.41;1760641;81;26574;-61
2022/06/02 02:48:29;;;;;;;16.32;9.98;;;;;;;14.79;82.85;98582.16;1760565;81;25435;-60
2022/06/02 02:51:23;;;;;;;16.17;9.95;;;;;;;14.88;82.42;98594.45;1759445;81;27416;-61
2022/06/02 02:54:01;;;;;;;17.02;9.63;;;;;;;14.91;82.66;98601.26;1760312;81;25937;-61
2022/06/02 02:56:53;;;;;;;24.77;14.00;;;;;;;14.91;82.66;98601.26;1760770;81;25926;-61
2022/06/02 02:59:50;;;;;;;11.05;8.10;;;;;;;14.95;82.25;98607.69;1744239;81;26539;-61
2022/06/02 03:02:49;;;;;;;25.55;14.90;;;;;;;15.01;82.24;98621.49;1739076;82;25745;-60
2022/06/02 03:05:46;;;;;;;14.20;8.90;;;;;;;15.10;82.27;98617.80;1739041;82;27361;-60
2022/06/02 03:08:24;;;;;;;9.50;7.25;;;;;;;15.12;82.18;98620.45;1768796;79;25661;-58
2022/06/02 03:10:55;;;;;;;10.10;7.05;;;;;;;15.03;82.20;98623.31;1806010;79;25714;-60
2022/06/02 03:13:42;;;;;;;7.03;6.05;;;;;;;14.95;82.25;98624.81;1806994;79;25753;-57
2022/06/02 03:16:11;;;;;;;9.10;6.03;;;;;;;14.93;82.33;98622.39;1806433;79;25572;-60
2022/06/02 03:18:54;;;;;;;8.18;6.12;;;;;;;14.93;82.80;98630.67;1807689;79;27299;-60
2022/06/02 03:21:43;;;;;;;7.72;5.42;;;;;;;15.00;82.84;98631.49;1806440;79;25461;-60
2022/06/02 03:24:40;;;;;;;9.10;6.25;;;;;;;15.05;82.77;98630.68;1807115;79;25519;-60
2022/06/02 03:27:21;;;;;;;7.65;5.30;;;;;;;14.95;82.39;98629.77;1725717;82;25777;-61
2022/06/02 03:30:08;;;;;;;8.05;5.08;;;;;;;14.95;82.39;98629.77;1725926;83;25629;-60
2022/06/02 03:33:15;;;;;;;5.12;4.62;;;;;;;14.91;82.33;98626.88;1725632;83;27482;-61
2022/06/02 03:36:01;;;;;;;5.75;5.15;;;;;;;14.96;82.42;98618.13;1726087;83;25686;-61
2022/06/02 03:38:39;;;;;;;6.12;5.30;;;;;;;14.99;82.26;98623.78;1673887;85;25505;-61
2022/06/02 03:41:49;;;;;;;19.17;16.73;;;;;;;15.07;82.18;98621.24;1671947;85;25755;-61
2022/06/02 03:44:50;;;;;;;7.50;5.62;;;;;;;15.13;82.39;98620.68;1673860;85;25843;-58
2022/06/02 03:47:49;;;;;;;11.60;7.40;;;;;;;15.14;82.24;98623.66;1673818;85;28293;-59
2022/06/02 03:50:35;;;;;;;8.00;5.60;;;;;;;15.21;82.04;98625.04;1673796;85;25551;-59
2022/06/02 03:53:26;;;;;;;5.10;4.30;;;;;;;15.24;82.17;98616.88;1673853;85;25673;-59
2022/06/02 03:56:06;;;;;;;6.72;5.10;;;;;;;15.20;81.71;98611.02;1673473;85;25784;-59
2022/06/02 03:58:56;;;;;;;8.45;5.62;;;;;;;15.26;82.06;98617.92;1680958;84;32317;-60
2022/06/02 04:01:36;;;;;;;6.53;4.75;;;;;;;15.26;82.17;98622.06;1698421;84;27392;-60
2022/06/02 04:04:18;;;;;;;;;;;;;;;15.23;82.18;98625.52;1741658;81;25686;-57
2022/06/02 04:07:06;;;;;;;5.28;4.40;;;;;;;15.27;82.24;98627.23;1761168;81;25446;-58
2022/06/02 04:09:49;;;;;;;6.55;4.15;;;;;;;15.33;82.21;98626.98;1759555;81;25559;-60
2022/06/02 04:15:37;;;;;;;5.78;3.87;;;;;;;15.47;82.03;98632.14;1777915;78;25701;-60
2022/06/02 04:18:21;;;;;;;4.30;3.90;;;;;;;15.48;81.59;98633.18;1793356;80;25537;-59
2022/06/02 04:21:10;;;;;;;6.15;4.10;;;;;;;15.48;81.59;98633.18;1793528;80;25544;-61
2022/06/02 04:24:12;;;;;;;6.37;4.10;;;;;;;15.58;81.83;98640.77;1794308;80;25884;-60
2022/06/02 04:26:58;;;;;;;5.85;3.92;;;;;;;15.52;81.79;98631.92;1794520;79;25750;-60
2022/06/02 04:30:03;;;;;;;5.58;3.87;;;;;;;15.77;82.08;98649.80;1794651;80;27443;-60
2022/06/02 04:32:53;;;;;;;3.67;3.22;;;;;;;15.89;82.26;98651.76;1794391;80;25562;-57
2022/06/02 04:35:50;;;;;;;3.33;3.02;;;;;;;15.95;81.58;98654.50;1794126;80;25690;-60
2022/06/02 04:38:49;;;;;;;3.75;3.25;;;;;;;15.96;81.82;98660.25;1794156;80;26499;-58
2022/06/02 04:41:55;;;;;;;3.55;3.08;;;;;;;15.96;81.82;98660.25;1794327;79;25598;-57
2022/06/02 04:44:41;;;;;;;3.20;2.83;;;;;;;16.00;81.64;98668.09;1714346;83;27374;-56
2022/06/02 04:47:16;;;;;;;4.50;2.98;;;;;;;16.03;81.48;98664.63;1713946;83;25683;-56
2022/06/02 04:49:54;;;;;;;3.45;2.80;;;;;;;16.01;81.23;98660.61;1714399;83;25664;-57
2022/06/02 04:52:41;;;;;;;2.55;2.33;;;;;;;15.99;80.49;98655.44;1712513;83;25889;-61
2022/06/02 04:55:27;;;;;;;2.40;2.20;;;;;;;15.96;80.45;98659.44;1713654;83;25509;-61
2022/06/02 04:58:14;;;;;;;3.00;2.37;;;;;;;15.96;80.45;98659.44;1714542;83;27327;-61
2022/06/02 05:01:38;;;;;;;2.30;2.10;;;;;;;16.03;80.26;98664.63;1714015;83;25806;-62
2022/06/02 05:04:31;;;;;;;3.58;2.70;;;;;;;16.17;80.10;98658.70;1714232;83;25691;-61
2022/06/02 05:07:23;;;;;;;5.78;3.92;;;;;;;16.30;80.35;98653.91;1714121;83;25914;-58
2022/06/02 05:10:29;;;;;;;3.98;2.75;;;;;;;16.36;79.17;98651.72;1704316;83;25615;-59
2022/06/02 05:13:13;;;;;;;4.72;3.40;;;;;;;16.38;78.48;98659.66;1713800;83;25925;-57
2022/06/02 05:16:08;;;;;;;4.22;3.55;;;;;;;16.49;79.31;98668.26;1714072;83;25711;-57
2022/06/02 05:19:11;;;;;;;6.22;3.77;;;;;;;16.49;79.31;98668.26;1776333;78;25652;-56
2022/06/02 05:22:15;;;;;;;6.17;3.77;;;;;;;16.58;79.31;98671.64;1821321;78;26617;-57
2022/06/02 05:25:20;;;;;;;4.92;3.37;;;;;;;16.58;78.69;98666.71;1822079;78;25577;-57
2022/06/02 05:28:09;;;;;;;6.10;3.80;;;;;;;16.61;78.11;98666.78;1822199;78;27483;-56
2022/06/02 05:31:13;;;;;;;5.47;4.10;;;;;;;16.67;78.20;98681.97;1822235;78;25647;-58
2022/06/02 05:34:11;;;;;;;5.67;3.27;;;;;;;17.00;78.57;98685.59;1822141;78;25607;-60
2022/06/02 05:37:04;;;;;;;6.17;3.05;;;;;;;17.00;78.57;98685.59;1822174;78;25691;-62
2022/06/02 05:39:39;;;;;;;4.33;2.80;;;;;;;17.16;76.79;98678.69;1820999;78;25754;-62
2022/06/02 05:42:29;;;;;;;8.00;2.90;;;;;;;17.27;78.67;98689.24;1820559;78;27393;-62
2022/06/02 05:45:25;;;;;;;3.60;2.50;;;;;;;17.58;78.23;98683.42;1822160;78;25415;-62
2022/06/02 05:48:05;;;;;;;3.72;2.42;;;;;;;17.79;76.41;98689.24;1822146;78;25636;-62
2022/06/02 05:50:44;;;;;;;3.12;2.20;;;;;;;17.85;75.24;98687.80;1822120;78;25737;-58
2022/06/02 05:53:36;;;;;;;3.45;2.35;;;;;;;18.02;75.40;98685.77;1822239;78;25446;-63
2022/06/02 05:56:26;;;;;;;3.02;2.20;;;;;;;18.13;74.28;98690.97;1822380;78;27574;-61
2022/06/02 05:59:25;;;;;;;3.10;2.55;;;;;;;18.22;73.32;98706.61;1822122;78;25561;-61
2022/06/02 06:02:12;;;;;;;3.50;2.10;;;;;;;18.38;73.75;98714.27;1822343;78;25623;-60
2022/06/02 06:05:20;;;;;;;3.22;2.30;;;;;;;18.54;74.49;98721.72;1761863;81;27834;-62
2022/06/02 06:08:19;;;;;;;3.12;2.42;;;;;;;18.74;74.83;98727.24;1762529;81;25471;-57
2022/06/02 06:11:23;;;;;;;3.42;2.22;;;;;;;18.88;74.65;98730.88;1762514;81;28363;-58
2022/06/02 06:14:17;;;;;;;3.20;2.45;;;;;;;19.09;73.80;98738.83;1762208;81;25460;-59
2022/06/02 06:17:01;;;;;;;4.22;2.62;;;;;;;19.26;73.34;98747.23;1762399;81;25635;-62
2022/06/02 06:20:09;;;;;;;4.15;2.67;;;;;;;19.31;73.46;98749.70;1762289;81;26568;-62
2022/06/02 06:22:41;;;;;;;3.12;2.80;;;;;;;19.37;72.41;98760.52;1762612;81;25510;-62
2022/06/02 06:25:16;;;;;;;2.87;2.58;;;;;;;19.25;71.53;98751.19;1762532;81;27512;-62
2022/06/02 06:28:10;;;;;;;3.45;2.60;;;;;;;19.11;71.00;98763.45;1762235;81;25868;-62
2022/06/02 06:31:18;;;;;;;3.00;2.70;;;;;;;18.97;71.30;98760.58;1762270;81;25716;-58
2022/06/02 06:34:12;;;;;;;4.37;3.33;;;;;;;18.83;70.57;98765.87;1762365;81;25794;-58
2022/06/02 06:37:07;;;;;;;3.25;2.65;;;;;;;18.64;71.52;98771.65;1762296;81;25643;-60
2022/06/02 06:39:55;;;;;;;2.95;2.52;;;;;;;18.60;71.65;98772.17;1762458;81;27907;-58
2022/06/02 06:42:39;;;;;;;5.05;2.42;;;;;;;18.63;71.12;98768.09;1773982;80;25873;-59
2022/06/02 06:45:17;;;;;;;3.02;2.05;;;;;;;18.79;71.94;98778.28;1790124;80;25517;-57
2022/06/02 06:47:51;;;;;;;2.42;2.22;;;;;;;19.02;72.00;98774.17;1789632;80;26353;-57
2022/06/02 06:50:29;;;;;;;4.03;2.40;;;;;;;19.28;71.32;98769.90;1789502;80;25674;-58
2022/06/02 06:53:16;;;;;;;2.70;2.00;;;;;;;19.56;70.56;98772.95;1788814;80;27722;-58
2022/06/02 06:56:05;;;;;;;3.25;2.20;;;;;;;19.81;70.76;98768.36;1789343;80;25513;-59
2022/06/02 06:58:58;;;;;;;2.50;1.90;;;;;;;20.01;69.38;98778.01;1789592;80;25646;-58
2022/06/02 07:01:42;;;;;;;4.42;2.08;;;;;;;20.25;67.49;98792.67;1682668;84;25764;-63
2022/06/02 07:04:19;;;;;;;4.33;2.20;;;;;;;20.44;66.48;98797.28;1682519;85;25652;-62
2022/06/02 07:07:17;;;;;;;3.72;2.25;;;;;;;20.54;65.52;98802.80;1681683;85;27493;-61
2022/06/02 07:09:57;;;;;;;2.40;2.20;;;;;;;20.73;66.45;98808.00;1682426;85;27231;-60
2022/06/02 07:12:50;;;;;;;2.10;1.90;;;;;;;20.97;65.08;98804.51;1682317;85;25729;-60
2022/06/02 07:16:06;;;;;;;2.98;2.27;;;;;;;20.91;61.89;98811.60;1682646;85;25952;-60
2022/06/02 07:18:44;;;;;;;4.17;2.90;;;;;;;20.57;62.53;98823.49;1688967;83;25479;-59
2022/06/02 07:21:51;;;;;;;4.35;2.90;;;;;;;19.97;63.56;98831.37;1680215;83;27436;-57
2022/06/02 07:24:43;;;;;;;4.78;3.40;;;;;;;19.72;63.46;98838.73;1713251;83;27152;-57
2022/06/02 07:27:23;;;;;;;5.17;3.47;;;;;;;19.46;63.73;98832.52;1627211;88;26157;-59
2022/06/02 07:30:10;;;;;;;4.10;3.02;;;;;;;19.42;64.39;98842.98;1627724;88;26510;-59
2022/06/02 07:32:58;;;;;;;4.67;4.17;;;;;;;19.49;62.05;98842.30;1627632;88;25903;-57
2022/06/02 07:35:48;;;;;;;6.78;4.17;;;;;;;19.56;60.79;98848.58;1627449;86;26597;-58
2022/06/02 07:38:51;;;;;;;5.58;5.08;;;;;;;19.58;61.65;98856.55;1668175;83;25807;-57
2022/06/02 07:41:45;;;;;;;6.72;5.92;;;;;;;19.68;60.40;98853.14;1718151;83;25878;-57
2022/06/02 07:44:35;;;;;;;6.67;6.08;;;;;;;19.68;60.98;98855.92;1684125;84;26454;-63
2022/06/02 07:47:36;;;;;;;6.65;5.97;;;;;;;19.75;60.33;98871.33;1671733;84;25780;-62
2022/06/02 07:50:31;;;;;;;6.55;5.85;;;;;;;19.73;60.23;98878.45;1683986;85;27488;-62
2022/06/02 07:53:12;;;;;;;6.45;5.37;;;;;;;19.59;60.79;98878.98;1684184;85;26041;-62
2022/06/02 07:55:56;;;;;;;5.37;4.87;;;;;;;19.37;59.45;98882.78;1683337;85;25432;-63
2022/06/02 07:58:34;;;;;;;5.17;4.60;;;;;;;19.28;60.63;98888.55;1683854;85;25929;-61
2022/06/02 08:01:21;;;;;;;8.43;4.85;;;;;;;19.67;60.42;98892.67;1688125;84;25891;-60
2022/06/02 08:03:55;;;;;;;4.37;3.90;;;;;;;20.04;59.26;98898.87;1687205;84;27063;-60
2022/06/02 08:06:47;;;;;;;4.95;3.60;;;;;;;20.47;59.28;98900.12;1683414;85;25875;-61
2022/06/02 08:09:43;;;;;;;3.92;3.58;;;;;;;20.82;56.75;98896.81;1683803;85;25717;-63
2022/06/02 08:12:32;;;;;;;5.33;4.83;;;;;;;21.10;54.64;98910.13;1683520;85;25782;-62
2022/06/02 08:15:03;;;;;;;4.65;4.00;;;;;;;21.19;53.62;98907.24;1681203;85;25743;-58
2022/06/02 08:17:59;;;;;;;4.28;3.87;;;;;;;21.40;54.65;98906.48;1683289;85;27448;-60
2022/06/02 08:20:43;;;;;;;4.17;3.83;;;;;;;21.30;54.11;98916.34;1661308;83;25950;-63
2022/06/02 08:23:30;;;;;;;5.35;4.17;;;;;;;21.66;53.71;98922.30;1719993;83;25816;-63
2022/06/02 08:26:12;;;;;;;4.05;3.72;;;;;;;22.00;53.83;98924.23;1720784;83;25688;-59
2022/06/02 08:29:02;;;;;;;6.67;4.15;;;;;;;21.81;51.75;98927.45;1692553;84;25613;-62
2022/06/02 08:31:58;;;;;;;5.40;4.33;;;;;;;21.64;53.55;98929.42;1692047;84;28031;-58
2022/06/02 08:35:05;;;;;;;4.40;4.00;;;;;;;21.63;53.37;98932.83;1692590;84;25715;-63
2022/06/02 08:38:04;;;;;;;5.55;3.67;;;;;;;21.21;52.34;98940.30;1692381;84;25843;-63
2022/06/02 08:40:58;;;;;;;4.55;3.90;;;;;;;21.15;52.37;98939.03;1691919;84;26278;-63
2022/06/02 08:43:49;;;;;;;3.67;3.37;;;;;;;21.23;52.03;98943.52;1681387;84;25736;-63
2022/06/02 08:46:45;;;;;;;5.08;3.22;;;;;;;21.83;52.69;98950.77;1691522;84;27353;-62
2022/06/02 08:49:56;;;;;;;5.28;3.90;;;;;;;21.89;51.61;98952.62;1692228;84;25837;-64
2022/06/02 08:52:55;;;;;;;4.30;3.90;;;;;;;21.97;52.85;98957.67;1602117;89;25509;-63
2022/06/02 08:55:42;;;;;;;4.10;3.70;;;;;;;21.61;51.54;98958.06;1602463;89;25859;-60
2022/06/02 08:59:04;;;;;;;3.35;2.90;;;;;;;21.58;53.02;98963.05;1641163;87;25652;-62
2022/06/02 09:02:05;;;;;;;4.55;3.52;;;;;;;21.99;52.05;98963.07;1639584;87;27457;-61
2022/06/02 09:04:57;;;;;;;;;;;;;;;21.76;50.04;98966.84;1642306;87;25725;-61
2022/06/02 09:08:17;;;;;;;4.40;3.55;;;;;;;21.37;51.38;98968.56;1660174;86;25483;-57
2022/06/02 09:10:56;;;;;;;;;;;;;;;21.64;50.66;98965.09;1658647;86;26975;-62
2022/06/02 09:13:33;;;;;;;3.85;3.25;;;;;;;22.24;50.66;98964.48;1660383;86;25622;-62
2022/06/02 09:16:41;;;;;;;3.50;3.20;;;;;;;22.78;49.81;98968.30;1660442;86;27449;-59
2022/06/02 09:19:37;;;;;;;4.37;3.40;;;;;;;22.52;47.28;98967.30;1659387;85;25783;-59
2022/06/02 09:22:14;;;;;;;3.27;2.98;;;;;;;22.64;47.97;98964.81;1660181;86;25689;-60
2022/06/02 09:25:12;;;;;;;4.03;3.40;;;;;;;22.90;49.50;98971.36;1660589;86;25716;-60
2022/06/02 09:28:07;;;;;;;3.40;2.72;;;;;;;23.56;45.04;98969.09;1660354;86;25693;-59
2022/06/02 09:31:02;;;;;;;3.50;3.20;;;;;;;23.83;46.13;98971.36;1772219;80;26383;-57
2022/06/02 09:33:49;;;;;;;3.35;3.00;;;;;;;24.08;44.56;98972.78;1789920;80;25644;-60
2022/06/02 09:37:06;;;;;;;4.12;3.20;;;;;;;24.04;46.25;98974.17;1790072;80;25449;-62
2022/06/02 09:40:10;;;;;;;4.20;2.90;;;;;;;24.59;42.98;98970.01;1790070;80;26359;-57
2022/06/02 09:43:27;;;;;;;3.40;3.10;;;;;;;24.47;44.61;98967.62;1790724;80;25414;-58
2022/06/02 09:46:28;;;;;;;4.35;3.10;;;;;;;24.89;44.91;98972.17;1789784;80;28680;-59
2022/06/02 09:49:12;;;;;;;3.40;3.10;;;;;;;25.05;44.05;98968.34;1789688;80;25583;-60
2022/06/02 09:52:04;;;;;;;3.05;2.85;;;;;;;24.95;43.82;98971.95;1789454;80;25595;-58
2022/06/02 09:54:49;;;;;;;3.55;2.83;;;;;;;25.21;44.78;98975.48;1790241;80;25799;-62
2022/06/02 10:00:38;;;;;;;3.15;2.70;;;;;;;25.66;42.07;98967.90;1781689;80;25823;-63
2022/06/02 10:03:25;;;;;;;2.77;2.58;;;;;;;25.90;41.67;98970.14;1763346;81;25655;-63
2022/06/02 10:06:22;;;;;;;3.20;2.40;;;;;;;26.26;41.15;98980.33;1763464;81;25629;-58
2022/06/02 10:09:18;;;;;;;2.70;2.50;;;;;;;26.62;41.86;98976.45;1763289;81;25837;-62
2022/06/02 10:15:23;;;;;;;3.10;2.50;;;;;;;26.35;40.16;98977.88;1709747;83;25639;-62
2022/06/02 10:18:00;;;;;;;4.60;2.40;;;;;;;25.73;40.82;98974.69;1709492;83;25770;-62
2022/06/02 10:20:46;;;;;;;2.80;2.47;;;;;;;25.68;41.12;98973.10;1709816;83;25699;-63
2022/06/02 10:23:43;;;;;;;2.75;2.42;;;;;;;25.40;41.22;98972.81;1709156;83;25800;-62
2022/06/02 10:26:46;;;;;;;2.52;2.33;;;;;;;25.41;39.22;98976.39;1710010;83;25703;-60
2022/06/02 10:29:56;;;;;;;3.10;2.70;;;;;;;24.72;41.38;98976.60;1709409;83;27818;-62
2022/06/02 10:32:31;;;;;;;2.70;2.50;;;;;;;24.33;41.14;98983.23;1709728;83;25469;-61
2022/06/02 10:35:34;;;;;;;2.90;2.60;;;;;;;23.86;42.33;98981.76;1709678;83;25545;-62
2022/06/02 10:38:18;;;;;;;2.85;2.45;;;;;;;23.79;42.85;98980.54;1709732;83;26963;-63
2022/06/02 10:41:07;;;;;;;2.50;2.30;;;;;;;24.08;42.52;98976.98;1709710;83;25619;-59
2022/06/02 10:43:56;;;;;;;3.12;2.37;;;;;;;24.87;42.90;98963.36;1709990;83;27451;-60
2022/06/02 10:46:55;;;;;;;3.65;2.30;;;;;;;25.78;41.28;98971.42;1709543;83;25517;-58
2022/06/02 10:49:41;;;;;;;3.05;1.80;;;;;;;26.41;40.12;98974.00;1709992;83;25513;-59
2022/06/02 10:52:56;;;;;;;2.47;2.20;;;;;;;26.77;40.15;98975.69;1763759;80;25688;-58
2022/06/02 10:56:00;;;;;;;2.15;1.95;;;;;;;27.34;39.00;98975.48;1763653;81;25558;-59
2022/06/02 10:59:05;;;;;;;2.08;1.98;;;;;;;27.37;37.12;98974.64;1763628;81;27254;-58
2022/06/02 11:02:00;;;;;;;2.45;2.20;;;;;;;27.00;37.47;98972.23;1763080;78;25423;-61
2022/06/02 11:04:49;;;;;;;2.05;1.85;;;;;;;26.66;36.26;98978.61;1762190;81;25458;-58
2022/06/02 11:08:02;;;;;;;2.10;1.90;;;;;;;26.05;37.04;98971.64;1763377;81;27819;-58
2022/06/02 11:11:00;;;;;;;3.17;2.12;;;;;;;25.47;38.21;98976.17;1763345;81;25672;-59
2022/06/02 11:13:56;;;;;;;2.87;1.80;;;;;;;25.56;39.62;98975.75;1763493;81;27887;-59
2022/06/02 11:16:55;;;;;;;2.87;2.00;;;;;;;26.00;39.17;98980.52;1762504;81;25444;-62
2022/06/02 11:19:43;;;;;;;3.35;2.12;;;;;;;26.01;39.14;98982.11;1665816;85;26523;-62
2022/06/02 11:22:45;;;;;;;2.00;1.90;;;;;;;25.87;38.49;98982.19;1670152;85;26718;-63
2022/06/02 11:25:40;;;;;;;1.90;1.80;;;;;;;26.10;37.69;98981.64;1669890;85;25713;-61
2022/06/02 11:28:34;;;;;;;1.60;1.50;;;;;;;26.77;38.74;98985.53;1669890;85;28509;-63
2022/06/02 11:31:34;;;;;;;1.65;1.55;;;;;;;27.45;37.00;98976.76;1669312;85;27260;-62
2022/06/02 11:34:38;;;;;;;2.27;1.92;;;;;;;28.04;36.11;98972.70;1670165;85;25710;-62
2022/06/02 11:37:29;;;;;;;1.77;1.67;;;;;;;28.12;35.73;98974.80;1670032;85;25737;-63
2022/06/02 11:40:29;;;;;;;2.22;1.80;;;;;;;28.61;32.87;98977.83;1670213;85;25565;-62
2022/06/02 11:43:03;;;;;;;2.42;1.80;;;;;;;27.97;33.38;98972.81;1670087;85;27392;-62
2022/06/02 11:46:20;;;;;;;1.87;1.70;;;;;;;28.32;34.99;98971.91;1669778;85;25472;-59
2022/06/02 11:49:08;;;;;;;1.65;1.50;;;;;;;29.18;32.67;98965.31;1670230;85;25714;-62
2022/06/02 11:52:28;;;;;;;1.60;1.50;;;;;;;29.49;32.14;98971.93;1669963;85;25741;-63
2022/06/02 11:55:25;;;;;;;2.00;1.70;;;;;;;29.46;32.87;98971.39;1670264;85;25724;-60
2022/06/02 11:58:24;;;;;;;1.77;1.62;;;;;;;29.82;32.28;98971.25;1757265;81;28236;-60
2022/06/02 12:01:01;;;;;;;2.40;1.82;;;;;;;29.50;30.76;98958.02;1763277;80;25636;-60
2022/06/02 12:04:19;;;;;;;1.90;1.35;;;;;;;28.76;31.14;98964.30;1763179;81;25754;-63
2022/06/02 12:07:33;;;;;;;3.70;1.50;;;;;;;28.54;32.82;98966.09;1762459;81;26400;-62
2022/06/02 12:10:22;;;;;;;1.57;1.47;;;;;;;28.96;31.92;98965.56;1762720;81;25600;-59
2022/06/02 12:13:28;;;;;;;1.40;1.30;;;;;;;29.41;30.83;98964.23;1763332;81;27808;-59
2022/06/02 12:16:26;;;;;;;3.15;1.52;;;;;;;29.25;31.64;98970.02;1763949;81;25818;-59
2022/06/02 12:19:20;;;;;;;2.85;1.50;;;;;;;29.71;30.83;98967.25;1763368;81;25417;-59
2022/06/02 12:22:04;;;;;;;2.00;1.20;;;;;;;29.90;30.38;98966.40;1763304;81;25734;-59
2022/06/02 12:25:12;;;;;;;2.17;1.32;;;;;;;29.99;30.22;98967.83;1752439;81;25739;-59
2022/06/02 12:28:18;;;;;;;1.45;1.07;;;;;;;30.31;28.53;98960.62;1752952;81;27398;-60
2022/06/02 12:31:12;;;;;;;2.75;1.30;;;;;;;30.21;27.63;98964.49;1638964;86;25694;-58
2022/06/02 12:34:04;;;;;;;1.47;1.10;;;;;;;29.88;27.93;98961.80;1638936;87;25755;-60
2022/06/02 12:36:58;;;;;;;1.30;1.20;;;;;;;30.02;29.18;98962.71;1638344;87;27852;-58
2022/06/02 12:39:54;;;;;;;2.75;1.10;;;;;;;30.18;28.06;98969.00;1638958;87;25544;-59
2022/06/02 12:43:08;;;;;;;2.72;1.35;;;;;;;30.80;28.11;98964.63;1638803;87;27628;-58
2022/06/02 12:45:53;;;;;;;1.40;1.20;;;;;;;30.93;27.67;98963.25;1639043;87;25741;-58
2022/06/02 12:48:37;;;;;;;1.00;1.00;;;;;;;31.14;26.65;98958.24;1639163;86;25655;-63
2022/06/02 12:51:08;;;;;;;1.57;1.12;;;;;;;30.95;26.44;98967.05;1594160;90;25821;-63
2022/06/02 12:54:30;;;;;;;1.10;1.00;;;;;;;30.82;26.64;98972.03;1594336;90;25774;-63
2022/06/02 12:57:13;;;;;;;2.60;1.25;;;;;;;30.73;27.20;98967.60;1590698;90;29533;-59
2022/06/02 12:59:51;;;;;;;2.83;1.20;;;;;;;31.03;28.40;98974.11;1591145;90;25756;-60
2022/06/02 13:03:05;;;;;;;4.00;1.82;;;;;;;31.17;27.79;98964.42;1607046;89;25553;-63
2022/06/02 13:06:30;;;;;;;2.72;1.70;;;;;;;30.92;25.94;98961.67;1613140;87;26423;-61
2022/06/02 13:09:52;;;;;;;1.30;1.12;;;;;;;31.33;27.00;98958.48;1620952;88;25796;-62
2022/06/02 13:12:51;;;;;;;2.00;1.10;;;;;;;31.80;25.86;98957.09;1634523;87;27522;-61
2022/06/02 13:15:47;;;;;;;1.75;1.05;;;;;;;32.11;25.52;98952.90;1620568;88;25801;-59
2022/06/02 13:18:24;;;;;;;1.87;1.20;;;;;;;32.33;25.18;98945.91;1634353;87;25511;-63
2022/06/02 13:21:27;;;;;;;1.50;1.40;;;;;;;31.98;26.64;98951.52;1619451;88;25841;-57
2022/06/02 13:24:16;;;;;;;2.65;1.10;;;;;;;32.17;26.49;98949.05;1634800;87;25666;-60
2022/06/02 13:27:32;;;;;;;1.70;1.10;;;;;;;31.00;26.72;98945.30;1621047;88;27431;-61
2022/06/02 13:30:41;;;;;;;1.17;1.07;;;;;;;30.91;26.40;98950.20;1761773;81;25517;-59
2022/06/02 13:33:37;;;;;;;1.45;1.35;;;;;;;30.98;26.32;98952.81;1762986;81;25663;-60
2022/06/02 13:36:31;;;;;;;2.33;1.00;;;;;;;30.72;27.27;98952.69;1761599;81;25868;-62
2022/06/02 13:39:26;;;;;;;1.75;1.00;;;;;;;31.07;26.27;98951.35;1762433;81;25661;-61
2022/06/02 13:42:16;;;;;;;0.90;0.90;;;;;;;31.45;25.93;98948.48;1762261;81;27578;-59